createdAt,value
2023-02-20T00:00:36.170Z,19.25
2023-02-20T00:01:36.149Z,19.23
2023-02-20T00:02:36.209Z,19.23
2023-02-20T00:03:36.144Z,19.20
2023-02-20T00:04:36.118Z,19.23
2023-02-20T00:05:36.114Z,19.26
2023-02-20T00:06:36.096Z,19.26
2023-02-20T00:07:36.087Z,19.31
2023-02-20T00:08:36.073Z,19.28
2023-02-20T00:09:36.065Z,19.31
2023-02-20T00:10:36.055Z,19.23
2023-02-20T00:11:36.038Z,19.34
2023-02-20T00:12:36.025Z,19.34
2023-02-20T00:13:36.012Z,19.35
2023-02-20T00:14:36.000Z,19.34
2023-02-20T00:15:35.997Z,19.29
2023-02-20T00:16:35.976Z,19.35
2023-02-20T00:17:35.967Z,19.34
2023-02-20T00:18:35.953Z,19.32
2023-02-20T00:19:35.928Z,19.35
2023-02-20T00:20:35.926Z,19.37
2023-02-20T00:21:35.911Z,19.35
2023-02-20T00:22:35.904Z,19.40
2023-02-20T00:23:35.894Z,19.43
2023-02-20T00:24:35.888Z,19.43
2023-02-20T00:25:35.864Z,19.43
2023-02-20T00:26:35.850Z,19.43
2023-02-20T00:27:35.832Z,19.41
2023-02-20T00:28:35.833Z,19.41
2023-02-20T00:29:35.808Z,19.43
2023-02-20T00:30:35.885Z,19.40
2023-02-20T00:31:35.775Z,19.41
2023-02-20T00:32:35.776Z,19.46
2023-02-20T00:33:35.765Z,19.43
2023-02-20T00:34:35.748Z,19.46
2023-02-20T00:35:35.753Z,19.46
2023-02-20T00:36:35.736Z,19.41
2023-02-20T00:37:35.718Z,19.41
2023-02-20T00:38:35.725Z,19.48
2023-02-20T00:39:35.688Z,19.47
2023-02-20T00:40:35.697Z,19.48
2023-02-20T00:41:35.687Z,19.55
2023-02-20T00:42:35.686Z,19.53
2023-02-20T00:43:35.673Z,19.49
2023-02-20T00:44:35.664Z,19.52
2023-02-20T00:45:35.645Z,19.48
2023-02-20T00:46:35.668Z,19.52
2023-02-20T00:47:35.636Z,19.50
2023-02-20T00:48:35.633Z,19.55
2023-02-20T00:49:35.603Z,19.56
2023-02-20T00:50:35.604Z,19.52
2023-02-20T00:51:35.580Z,19.55
2023-02-20T00:52:35.594Z,19.56
2023-02-20T00:53:35.572Z,19.51
2023-02-20T00:54:35.554Z,19.51
2023-02-20T00:55:35.542Z,19.55
2023-02-20T00:56:35.533Z,19.61
2023-02-20T00:57:35.524Z,19.53
2023-02-20T00:58:35.514Z,19.55
2023-02-20T00:59:35.495Z,19.61
2023-02-20T01:00:35.486Z,19.68
2023-02-20T01:01:35.546Z,19.63
2023-02-20T01:02:35.535Z,19.62
2023-02-20T01:03:35.462Z,19.62
2023-02-20T01:04:35.459Z,19.64
2023-02-20T01:05:35.448Z,19.59
2023-02-20T01:06:35.459Z,19.59
2023-02-20T01:07:35.445Z,19.53
2023-02-20T01:08:35.464Z,19.60
2023-02-20T01:09:35.465Z,19.62
2023-02-20T01:10:35.422Z,19.62
2023-02-20T01:11:35.414Z,19.62
2023-02-20T01:12:35.398Z,19.65
2023-02-20T01:13:35.393Z,19.65
2023-02-20T01:14:35.399Z,19.60
2023-02-20T01:15:35.402Z,19.66
2023-02-20T01:16:35.380Z,19.59
2023-02-20T01:17:35.366Z,19.63
2023-02-20T01:18:35.369Z,19.68
2023-02-20T01:19:35.380Z,19.66
2023-02-20T01:20:35.358Z,19.65
2023-02-20T01:21:35.340Z,19.67
2023-02-20T01:22:35.340Z,19.66
2023-02-20T01:23:35.322Z,19.68
2023-02-20T01:24:35.314Z,19.65
2023-02-20T01:26:35.293Z,19.65
2023-02-20T01:27:35.314Z,19.63
2023-02-20T01:28:35.297Z,19.63
2023-02-20T01:29:35.282Z,19.71
2023-02-20T01:30:35.331Z,19.77
2023-02-20T01:31:35.374Z,19.57
2023-02-20T01:32:35.252Z,19.66
2023-02-20T01:33:35.247Z,19.77
2023-02-20T01:34:35.241Z,19.75
2023-02-20T01:35:35.227Z,19.74
2023-02-20T01:36:35.220Z,19.69
2023-02-20T01:37:35.223Z,19.73
2023-02-20T01:38:35.201Z,19.75
2023-02-20T01:39:35.206Z,19.78
2023-02-20T01:40:35.192Z,19.80
2023-02-20T01:41:35.180Z,19.80
2023-02-20T01:42:35.190Z,19.77
2023-02-20T01:43:35.171Z,19.72
2023-02-20T01:44:35.182Z,19.77
2023-02-20T01:45:35.152Z,19.78
2023-02-20T01:46:35.169Z,19.78
2023-02-20T01:47:35.130Z,19.78
2023-02-20T01:48:35.121Z,19.76
2023-02-20T01:49:35.120Z,19.70
2023-02-20T01:50:35.104Z,19.69
2023-02-20T01:51:35.107Z,19.75
2023-02-20T01:52:35.085Z,19.69
2023-02-20T01:53:35.078Z,19.70
2023-02-20T01:54:35.067Z,19.67
2023-02-20T01:55:35.059Z,19.73
2023-02-20T01:56:35.062Z,19.75
2023-02-20T01:57:35.035Z,19.70
2023-02-20T01:58:35.032Z,19.73
2023-02-20T01:59:35.027Z,19.70
2023-02-20T02:00:35.032Z,19.70
2023-02-20T02:01:35.008Z,19.69
2023-02-20T02:02:34.994Z,19.64
2023-02-20T02:03:34.985Z,19.67
2023-02-20T02:04:35.005Z,19.61
2023-02-20T02:05:34.989Z,19.69
2023-02-20T02:06:34.979Z,19.64
2023-02-20T02:07:34.983Z,19.70
2023-02-20T02:08:35.007Z,19.61
2023-02-20T02:09:34.946Z,19.64
2023-02-20T02:10:34.958Z,19.69
2023-02-20T02:11:34.930Z,19.58
2023-02-20T02:12:34.919Z,19.63
2023-02-20T02:13:34.917Z,19.72
2023-02-20T02:14:34.892Z,19.61
2023-02-20T02:15:34.881Z,19.67
2023-02-20T02:16:34.935Z,19.69
2023-02-20T02:17:34.861Z,19.64
2023-02-20T02:18:34.857Z,19.66
2023-02-20T02:19:34.846Z,19.55
2023-02-20T02:20:34.855Z,19.66
2023-02-20T02:21:34.824Z,19.66
2023-02-20T02:22:34.846Z,19.64
2023-02-20T02:23:34.826Z,19.66
2023-02-20T02:24:34.804Z,19.61
2023-02-20T02:25:34.806Z,19.58
2023-02-20T02:26:34.790Z,19.54
2023-02-20T02:27:34.789Z,19.51
2023-02-20T02:28:34.775Z,19.55
2023-02-20T02:29:34.769Z,19.51
2023-02-20T02:30:34.825Z,19.55
2023-02-20T02:31:34.881Z,19.58
2023-02-20T02:32:34.784Z,19.55
2023-02-20T02:33:34.762Z,19.57
2023-02-20T02:34:34.749Z,19.58
2023-02-20T02:35:34.753Z,19.60
2023-02-20T02:36:34.739Z,19.60
2023-02-20T02:37:34.735Z,19.64
2023-02-20T02:38:34.724Z,19.57
2023-02-20T02:39:34.717Z,19.60
2023-02-20T02:40:34.716Z,19.57
2023-02-20T02:41:34.715Z,19.63
2023-02-20T02:42:34.687Z,19.63
2023-02-20T02:43:34.678Z,19.63
2023-02-20T02:44:34.689Z,19.61
2023-02-20T02:45:34.714Z,19.58
2023-02-20T02:46:34.687Z,19.63
2023-02-20T02:47:34.684Z,19.67
2023-02-20T02:48:34.684Z,19.63
2023-02-20T02:49:34.670Z,19.67
2023-02-20T02:50:34.694Z,19.70
2023-02-20T02:51:34.666Z,19.66
2023-02-20T02:52:34.665Z,19.66
2023-02-20T02:53:34.658Z,19.66
2023-02-20T02:54:34.662Z,19.73
2023-02-20T02:55:34.672Z,19.63
2023-02-20T02:56:34.659Z,19.72
2023-02-20T02:57:34.639Z,19.61
2023-02-20T02:58:34.640Z,19.64
2023-02-20T02:59:34.648Z,19.64
2023-02-20T03:00:34.648Z,19.66
2023-02-20T03:01:34.637Z,19.67
2023-02-20T03:02:34.620Z,19.72
2023-02-20T03:03:34.635Z,19.73
2023-02-20T03:04:34.609Z,19.73
2023-02-20T03:05:34.619Z,19.70
2023-02-20T03:06:34.617Z,19.72
2023-02-20T03:07:34.607Z,19.67
2023-02-20T03:08:34.613Z,19.76
2023-02-20T03:09:34.608Z,19.69
2023-02-20T03:10:34.621Z,19.75
2023-02-20T03:11:34.601Z,19.75
2023-02-20T03:12:34.596Z,19.70
2023-02-20T03:13:34.602Z,19.73
2023-02-20T03:14:34.598Z,19.76
2023-02-20T03:15:34.584Z,19.72
2023-02-20T03:16:34.622Z,19.78
2023-02-20T03:17:34.579Z,19.79
2023-02-20T03:18:34.568Z,19.75
2023-02-20T03:19:34.565Z,19.78
2023-02-20T03:20:34.563Z,19.79
2023-02-20T03:21:34.632Z,19.76
2023-02-20T03:22:34.703Z,19.76
2023-02-20T03:23:34.614Z,19.73
2023-02-20T03:24:34.797Z,19.73
2023-02-20T03:25:34.544Z,19.79
2023-02-20T03:26:34.557Z,19.80
2023-02-20T03:27:34.538Z,19.74
2023-02-20T03:28:34.527Z,19.82
2023-02-20T03:29:34.527Z,19.81
2023-02-20T03:30:34.590Z,19.76
2023-02-20T03:31:34.654Z,19.85
2023-02-20T03:32:34.608Z,19.82
2023-02-20T03:33:34.782Z,19.85
2023-02-20T03:34:34.507Z,19.78
2023-02-20T03:35:34.506Z,19.85
2023-02-20T03:36:34.510Z,19.78
2023-02-20T03:37:34.498Z,19.75
2023-02-20T03:38:34.504Z,19.83
2023-02-20T03:39:34.496Z,19.87
2023-02-20T03:40:34.490Z,19.80
2023-02-20T03:41:34.489Z,19.85
2023-02-20T03:42:34.504Z,19.84
2023-02-20T03:43:34.486Z,19.86
2023-02-20T03:44:34.493Z,19.85
2023-02-20T03:45:34.498Z,19.83
2023-02-20T03:46:34.476Z,19.85
2023-02-20T03:47:35.693Z,19.81
2023-02-20T03:48:34.460Z,19.75
2023-02-20T03:49:34.452Z,19.80
2023-02-20T03:50:34.452Z,19.79
2023-02-20T03:51:34.427Z,19.82
2023-02-20T03:52:34.427Z,19.89
2023-02-20T03:53:34.426Z,19.85
2023-02-20T03:54:34.412Z,19.85
2023-02-20T03:55:34.397Z,19.76
2023-02-20T03:56:34.403Z,19.78
2023-02-20T03:57:34.395Z,19.82
2023-02-20T03:58:34.387Z,19.89
2023-02-20T03:59:34.369Z,19.85
2023-02-20T04:00:34.362Z,19.89
2023-02-20T04:01:34.391Z,19.91
2023-02-20T04:02:34.371Z,19.76
2023-02-20T04:03:34.348Z,19.91
2023-02-20T04:04:34.325Z,19.92
2023-02-20T04:05:34.318Z,19.94
2023-02-20T04:06:34.334Z,19.92
2023-02-20T04:07:34.309Z,19.95
2023-02-20T04:08:34.296Z,19.95
2023-02-20T04:09:34.279Z,19.88
2023-02-20T04:10:34.270Z,19.94
2023-02-20T04:11:34.254Z,19.91
2023-02-20T04:12:34.253Z,19.86
2023-02-20T04:13:34.248Z,19.92
2023-02-20T04:14:34.243Z,19.88
2023-02-20T04:15:34.225Z,19.89
2023-02-20T04:16:34.236Z,19.85
2023-02-20T04:17:34.215Z,19.80
2023-02-20T04:18:34.211Z,19.85
2023-02-20T04:19:34.213Z,19.83
2023-02-20T04:20:34.200Z,19.85
2023-02-20T04:21:34.202Z,19.89
2023-02-20T04:22:34.220Z,19.85
2023-02-20T04:23:34.195Z,19.71
2023-02-20T04:24:34.185Z,19.83
2023-02-20T04:25:34.189Z,19.85
2023-02-20T04:26:34.187Z,19.79
2023-02-20T04:27:34.179Z,19.82
2023-02-20T04:28:34.173Z,19.83
2023-02-20T04:29:34.175Z,19.77
2023-02-20T04:30:34.248Z,19.80
2023-02-20T04:31:34.218Z,19.83
2023-02-20T04:32:34.177Z,19.83
2023-02-20T04:33:34.165Z,19.85
2023-02-20T04:34:34.177Z,19.82
2023-02-20T04:35:34.177Z,19.77
2023-02-20T04:36:34.165Z,19.71
2023-02-20T04:37:34.165Z,19.80
2023-02-20T04:38:34.155Z,19.75
2023-02-20T04:39:34.163Z,19.74
2023-02-20T04:40:34.140Z,19.80
2023-02-20T04:41:34.133Z,19.80
2023-02-20T04:42:34.137Z,19.77
2023-02-20T04:43:34.139Z,19.80
2023-02-20T04:44:34.122Z,19.75
2023-02-20T04:45:34.105Z,19.77
2023-02-20T04:46:34.148Z,19.73
2023-02-20T04:47:34.110Z,19.78
2023-02-20T04:48:34.100Z,19.71
2023-02-20T04:49:34.097Z,19.80
2023-02-20T04:50:34.083Z,19.75
2023-02-20T04:51:34.084Z,19.71
2023-02-20T04:52:34.094Z,19.64
2023-02-20T04:53:34.069Z,19.71
2023-02-20T04:54:34.070Z,19.73
2023-02-20T04:55:34.064Z,19.65
2023-02-20T04:56:34.066Z,19.65
2023-02-20T04:57:34.073Z,19.68
2023-02-20T04:58:34.088Z,19.73
2023-02-20T04:59:34.058Z,19.77
2023-02-20T05:00:34.069Z,19.74
2023-02-20T05:01:34.082Z,19.73
2023-02-20T05:02:34.044Z,19.72
2023-02-20T05:03:34.036Z,19.71
2023-02-20T05:04:34.052Z,19.80
2023-02-20T05:05:34.034Z,19.71
2023-02-20T05:06:34.035Z,19.71
2023-02-20T05:07:34.120Z,19.74
2023-02-20T05:08:34.027Z,19.74
2023-02-20T05:09:34.030Z,19.75
2023-02-20T05:10:34.039Z,19.74
2023-02-20T05:11:34.013Z,19.77
2023-02-20T05:12:34.017Z,19.78
2023-02-20T05:13:34.022Z,19.75
2023-02-20T05:14:34.016Z,19.80
2023-02-20T05:15:34.032Z,19.79
2023-02-20T05:16:34.004Z,19.82
2023-02-20T05:17:34.088Z,19.77
2023-02-20T05:18:34.014Z,19.78
2023-02-20T05:19:34.003Z,19.80
2023-02-20T05:20:33.989Z,19.81
2023-02-20T05:21:33.981Z,19.83
2023-02-20T05:22:34.001Z,19.81
2023-02-20T05:23:33.973Z,19.78
2023-02-20T05:24:33.976Z,19.87
2023-02-20T05:25:33.960Z,19.81
2023-02-20T05:26:33.957Z,19.81
2023-02-20T05:27:33.954Z,19.81
2023-02-20T05:28:33.945Z,19.78
2023-02-20T05:29:33.937Z,19.78
2023-02-20T05:30:34.011Z,19.81
2023-02-20T05:31:34.003Z,19.84
2023-02-20T05:32:33.924Z,19.75
2023-02-20T05:33:33.945Z,19.83
2023-02-20T05:34:33.910Z,19.86
2023-02-20T05:35:33.899Z,19.86
2023-02-20T05:36:33.907Z,19.86
2023-02-20T05:37:33.948Z,19.84
2023-02-20T05:38:33.911Z,19.84
2023-02-20T05:39:33.894Z,19.84
2023-02-20T05:40:33.894Z,19.89
2023-02-20T05:41:33.888Z,19.90
2023-02-20T05:42:35.180Z,19.84
2023-02-20T05:43:33.888Z,19.90
2023-02-20T05:44:33.885Z,19.86
2023-02-20T05:45:33.878Z,19.92
2023-02-20T05:46:33.921Z,19.87
2023-02-20T05:47:33.883Z,19.78
2023-02-20T05:48:33.878Z,19.90
2023-02-20T05:49:33.869Z,19.90
2023-02-20T05:50:33.869Z,19.92
2023-02-20T05:51:34.341Z,19.90
2023-02-20T05:52:33.862Z,19.93
2023-02-20T05:53:33.867Z,19.87
2023-02-20T05:54:33.870Z,19.90
2023-02-20T05:55:33.856Z,19.86
2023-02-20T05:56:33.872Z,19.90
2023-02-20T05:57:33.857Z,19.90
2023-02-20T05:58:33.862Z,19.92
2023-02-20T05:59:33.857Z,19.95
2023-02-20T06:00:33.850Z,19.87
2023-02-20T06:01:33.850Z,19.87
2023-02-20T06:02:33.853Z,19.90
2023-02-20T06:03:33.979Z,19.86
2023-02-20T06:04:34.016Z,19.84
2023-02-20T06:05:34.032Z,19.90
2023-02-20T06:06:34.092Z,19.93
2023-02-20T06:07:34.152Z,19.93
2023-02-20T06:08:34.209Z,19.84
2023-02-20T06:09:34.267Z,19.92
2023-02-20T06:10:34.316Z,19.89
2023-02-20T06:11:34.365Z,19.93
2023-02-20T06:12:34.425Z,19.89
2023-02-20T06:13:34.480Z,19.86
2023-02-20T06:14:34.556Z,19.86
2023-02-20T06:15:34.600Z,19.87
2023-02-20T06:16:34.697Z,19.90
2023-02-20T06:17:34.723Z,19.86
2023-02-20T06:18:34.755Z,19.89
2023-02-20T06:19:34.814Z,19.93
2023-02-20T06:20:34.872Z,19.87
2023-02-20T06:21:34.958Z,19.93
2023-02-20T06:22:34.995Z,19.88
2023-02-20T06:23:35.055Z,19.89
2023-02-20T06:24:35.122Z,19.83
2023-02-20T06:25:35.168Z,19.86
2023-02-20T06:26:35.212Z,19.84
2023-02-20T06:27:35.270Z,19.89
2023-02-20T06:28:35.328Z,19.90
2023-02-20T06:29:35.375Z,19.90
2023-02-20T06:30:35.500Z,19.96
2023-02-20T06:31:35.552Z,20.02
2023-02-20T06:32:35.538Z,19.95
2023-02-20T06:33:35.589Z,20.02
2023-02-20T06:34:35.652Z,19.95
2023-02-20T06:35:35.743Z,20.02
2023-02-20T06:36:35.926Z,19.95
2023-02-20T06:37:35.872Z,20.04
2023-02-20T06:38:35.928Z,20.31
2023-02-20T06:39:36.070Z,20.80
2023-02-20T06:40:36.069Z,21.10
2023-02-20T06:41:36.155Z,21.50
2023-02-20T06:42:36.292Z,21.53
2023-02-20T06:43:36.292Z,21.79
2023-02-20T06:44:36.347Z,21.95
2023-02-20T06:45:36.416Z,22.19
2023-02-20T06:46:36.539Z,22.31
2023-02-20T06:47:36.534Z,22.33
2023-02-20T06:48:36.595Z,22.47
2023-02-20T06:49:36.674Z,22.79
2023-02-20T06:50:36.696Z,23.11
2023-02-20T06:51:36.748Z,23.54
2023-02-20T06:52:36.708Z,23.61
2023-02-20T06:53:36.680Z,23.78
2023-02-20T06:54:36.679Z,23.61
2023-02-20T06:55:36.672Z,23.70
2023-02-20T06:56:36.675Z,23.94
2023-02-20T06:57:36.646Z,23.97
2023-02-20T06:58:36.692Z,23.59
2023-02-20T06:59:36.646Z,23.61
2023-02-20T07:00:36.705Z,23.73
2023-02-20T07:01:36.592Z,23.84
2023-02-20T07:02:36.591Z,23.64
2023-02-20T07:03:36.616Z,23.65
2023-02-20T07:04:36.597Z,23.59
2023-02-20T07:05:36.562Z,23.92
2023-02-20T07:06:36.666Z,23.81
2023-02-20T07:07:37.132Z,23.46
2023-02-20T07:08:36.616Z,23.39
2023-02-20T07:09:36.739Z,23.13
2023-02-20T07:10:36.657Z,23.43
2023-02-20T07:11:36.702Z,23.36
2023-02-20T07:12:37.480Z,23.20
2023-02-20T07:13:36.573Z,23.16
2023-02-20T07:14:36.581Z,23.14
2023-02-20T07:15:36.516Z,23.08
2023-02-20T07:16:36.916Z,23.13
2023-02-20T07:17:36.440Z,23.56
2023-02-20T07:18:36.782Z,23.43
2023-02-20T07:19:36.411Z,23.19
2023-02-20T07:20:36.424Z,23.22
2023-02-20T07:21:36.394Z,23.05
2023-02-20T07:22:36.376Z,23.04
2023-02-20T07:23:36.361Z,23.03
2023-02-20T07:24:36.334Z,23.21
2023-02-20T07:25:36.321Z,23.48
2023-02-20T07:26:36.384Z,23.45
2023-02-20T07:27:36.328Z,23.28
2023-02-20T07:28:36.434Z,23.41
2023-02-20T07:29:36.320Z,23.56
2023-02-20T07:30:36.349Z,23.51
2023-02-20T07:31:36.442Z,23.58
2023-02-20T07:32:36.318Z,23.38
2023-02-20T07:33:36.319Z,23.46
2023-02-20T07:34:36.317Z,23.36
2023-02-20T07:35:36.326Z,23.61
2023-02-20T07:36:36.340Z,23.48
2023-02-20T07:37:36.318Z,23.58
2023-02-20T07:38:36.298Z,23.39
2023-02-20T07:39:36.304Z,23.43
2023-02-20T07:40:38.903Z,23.60
2023-02-20T07:41:36.350Z,23.50
2023-02-20T07:42:36.318Z,23.47
2023-02-20T07:43:36.310Z,23.58
2023-02-20T07:44:36.306Z,23.39
2023-02-20T07:45:36.303Z,23.63
2023-02-20T07:46:36.275Z,23.70
2023-02-20T07:47:36.272Z,23.56
2023-02-20T07:48:36.312Z,23.39
2023-02-20T07:49:36.277Z,23.42
2023-02-20T07:50:36.312Z,23.31
2023-02-20T07:51:36.288Z,23.35
2023-02-20T07:52:36.252Z,23.30
2023-02-20T07:53:36.252Z,23.30
2023-02-20T07:54:36.226Z,23.12
2023-02-20T07:55:36.253Z,23.13
2023-02-20T07:56:36.306Z,23.25
2023-02-20T07:57:36.213Z,23.16
2023-02-20T07:58:36.182Z,23.12
2023-02-20T07:59:36.196Z,22.88
2023-02-20T08:00:36.169Z,23.09
2023-02-20T08:01:36.197Z,23.22
2023-02-20T08:02:36.137Z,23.12
2023-02-20T08:03:36.141Z,23.25
2023-02-20T08:04:36.127Z,23.36
2023-02-20T08:05:48.144Z,23.37
2023-02-20T08:06:38.336Z,23.40
2023-02-20T08:07:36.102Z,23.34
2023-02-20T08:08:36.069Z,23.40
2023-02-20T08:09:36.055Z,23.51
2023-02-20T08:10:36.039Z,23.54
2023-02-20T08:11:36.033Z,23.56
2023-02-20T08:12:36.018Z,23.59
2023-02-20T08:13:36.006Z,23.52
2023-02-20T08:14:36.004Z,23.60
2023-02-20T08:15:35.995Z,23.67
2023-02-20T08:16:36.021Z,23.70
2023-02-20T08:17:45.893Z,23.73
2023-02-20T08:18:36.956Z,23.77
2023-02-20T08:19:35.931Z,23.74
2023-02-20T08:20:35.892Z,23.68
2023-02-20T08:21:35.884Z,23.59
2023-02-20T08:22:41.413Z,23.76
2023-02-20T08:23:36.835Z,23.69
2023-02-20T08:24:35.866Z,23.72
2023-02-20T08:25:35.806Z,23.75
2023-02-20T08:26:35.787Z,23.86
2023-02-20T08:27:35.766Z,23.88
2023-02-20T08:28:35.748Z,23.81
2023-02-20T08:29:35.752Z,23.92
2023-02-20T08:30:35.747Z,23.90
2023-02-20T08:31:35.807Z,24.01
2023-02-20T08:32:35.834Z,23.92
2023-02-20T08:33:35.678Z,24.07
2023-02-20T08:34:35.659Z,24.01
2023-02-20T08:35:35.641Z,23.96
2023-02-20T08:36:35.630Z,24.05
2023-02-20T08:37:35.607Z,24.13
2023-02-20T08:38:35.621Z,24.16
2023-02-20T08:39:35.596Z,24.34
2023-02-20T08:40:35.546Z,24.27
2023-02-20T08:41:35.540Z,24.13
2023-02-20T08:42:35.513Z,24.22
2023-02-20T08:43:35.509Z,24.32
2023-02-20T08:44:35.477Z,24.55
2023-02-20T08:45:35.512Z,24.48
2023-02-20T08:46:35.439Z,24.64
2023-02-20T08:47:35.427Z,24.62
2023-02-20T08:48:35.437Z,24.59
2023-02-20T08:49:35.379Z,24.66
2023-02-20T08:50:35.386Z,24.86
2023-02-20T08:51:35.346Z,24.72
2023-02-20T08:52:35.319Z,24.77
2023-02-20T08:53:35.294Z,24.80
2023-02-20T08:54:35.280Z,24.93
2023-02-20T08:55:35.250Z,25.01
2023-02-20T08:56:35.261Z,24.95
2023-02-20T08:57:35.217Z,24.94
2023-02-20T08:58:35.180Z,25.09
2023-02-20T08:59:35.194Z,25.11
2023-02-20T09:00:35.171Z,25.09
2023-02-20T09:01:35.229Z,25.15
2023-02-20T09:02:35.208Z,25.22
2023-02-20T09:03:35.059Z,25.18
2023-02-20T09:04:35.032Z,25.18
2023-02-20T09:05:35.786Z,25.17
2023-02-20T09:06:34.994Z,25.50
2023-02-20T09:07:34.963Z,25.35
2023-02-20T09:08:34.937Z,25.48
2023-02-20T09:09:34.929Z,25.50
2023-02-20T09:10:34.915Z,25.60
2023-02-20T09:11:34.903Z,25.70
2023-02-20T09:12:34.888Z,25.72
2023-02-20T09:13:34.841Z,25.82
2023-02-20T09:14:34.813Z,25.78
2023-02-20T09:15:34.784Z,25.68
2023-02-20T09:16:34.818Z,25.79
2023-02-20T09:17:34.820Z,25.92
2023-02-20T09:18:34.750Z,25.96
2023-02-20T09:19:34.738Z,26.04
2023-02-20T09:20:34.674Z,26.01
2023-02-20T09:21:34.647Z,26.02
2023-02-20T09:22:34.642Z,26.04
2023-02-20T09:23:34.620Z,25.88
2023-02-20T09:24:34.654Z,25.75
2023-02-20T09:25:34.552Z,25.74
2023-02-20T09:26:34.521Z,25.70
2023-02-20T09:27:34.553Z,25.61
2023-02-20T09:28:34.502Z,25.77
2023-02-20T09:29:34.458Z,25.75
2023-02-20T09:30:34.488Z,25.78
2023-02-20T09:31:34.457Z,26.01
2023-02-20T09:32:34.541Z,26.03
2023-02-20T09:33:34.397Z,25.92
2023-02-20T09:34:34.316Z,25.72
2023-02-20T09:35:34.291Z,25.45
2023-02-20T09:36:34.270Z,25.20
2023-02-20T09:37:34.282Z,24.92
2023-02-20T09:38:34.237Z,24.61
2023-02-20T09:39:34.234Z,24.46
2023-02-20T09:40:34.224Z,24.21
2023-02-20T09:41:34.173Z,24.16
2023-02-20T09:42:34.153Z,24.05
2023-02-20T09:43:34.130Z,23.80
2023-02-20T09:44:34.112Z,23.73
2023-02-20T09:45:34.124Z,23.65
2023-02-20T09:46:34.070Z,23.65
2023-02-20T09:47:34.041Z,23.41
2023-02-20T09:48:34.015Z,23.27
2023-02-20T09:49:34.020Z,23.29
2023-02-20T09:50:33.975Z,23.25
2023-02-20T09:51:33.955Z,23.14
2023-02-20T09:52:33.921Z,23.02
2023-02-20T09:53:33.901Z,23.03
2023-02-20T09:54:33.907Z,22.85
2023-02-20T09:55:33.887Z,22.78
2023-02-20T09:56:33.848Z,22.67
2023-02-20T09:57:33.817Z,22.60
2023-02-20T09:58:33.799Z,22.51
2023-02-20T09:59:33.786Z,22.49
2023-02-20T10:00:33.751Z,22.39
2023-02-20T10:01:33.727Z,22.42
2023-02-20T10:02:33.870Z,22.40
2023-02-20T10:03:33.719Z,22.30
2023-02-20T10:04:33.660Z,22.22
2023-02-20T10:05:33.659Z,22.19
2023-02-20T10:06:33.625Z,22.13
2023-02-20T10:07:33.626Z,22.13
2023-02-20T10:08:33.596Z,22.12
2023-02-20T10:09:33.569Z,22.16
2023-02-20T10:10:33.577Z,22.06
2023-02-20T10:11:33.550Z,22.02
2023-02-20T10:12:33.582Z,22.11
2023-02-20T10:13:33.539Z,22.08
2023-02-20T10:14:33.472Z,22.07
2023-02-20T10:15:33.453Z,22.07
2023-02-20T10:16:33.495Z,21.98
2023-02-20T10:17:33.437Z,22.06
2023-02-20T10:18:33.409Z,21.92
2023-02-20T10:19:33.396Z,21.99
2023-02-20T10:20:33.370Z,21.97
2023-02-20T10:21:33.347Z,21.98
2023-02-20T10:22:33.328Z,21.99
2023-02-20T10:23:33.311Z,21.99
2023-02-20T10:24:33.284Z,22.05
2023-02-20T10:25:33.265Z,21.99
2023-02-20T10:26:33.252Z,22.02
2023-02-20T10:27:33.223Z,22.02
2023-02-20T10:28:33.325Z,22.03
2023-02-20T10:29:33.219Z,22.02
2023-02-20T10:30:33.244Z,22.08
2023-02-20T10:31:33.268Z,22.05
2023-02-20T10:32:33.148Z,22.05
2023-02-20T10:33:33.320Z,22.00
2023-02-20T10:34:33.115Z,22.06
2023-02-20T10:35:33.097Z,22.43
2023-02-20T10:36:33.067Z,22.81
2023-02-20T10:37:46.422Z,23.22
2023-02-20T10:38:34.076Z,23.29
2023-02-20T10:39:33.062Z,23.66
2023-02-20T10:40:32.992Z,24.05
2023-02-20T10:41:32.965Z,23.94
2023-02-20T10:42:32.940Z,24.63
2023-02-20T10:43:32.943Z,25.10
2023-02-20T10:44:37.638Z,25.15
2023-02-20T10:45:33.878Z,25.47
2023-02-20T10:46:47.718Z,25.19
2023-02-20T10:47:33.846Z,25.27
2023-02-20T10:48:32.807Z,25.38
2023-02-20T10:49:32.784Z,25.29
2023-02-20T10:50:32.758Z,25.39
2023-02-20T10:51:32.729Z,25.41
2023-02-20T10:52:34.786Z,25.42
2023-02-20T10:53:32.705Z,25.33
2023-02-20T10:54:32.669Z,25.40
2023-02-20T10:55:32.633Z,25.38
2023-02-20T10:56:32.622Z,25.49
2023-02-20T10:57:32.583Z,25.23
2023-02-20T10:58:32.601Z,25.14
2023-02-20T10:59:32.555Z,25.14
2023-02-20T11:00:32.525Z,25.23
2023-02-20T11:01:32.590Z,25.20
2023-02-20T11:02:32.492Z,25.27
2023-02-20T11:03:32.531Z,25.09
2023-02-20T11:04:32.654Z,25.05
2023-02-20T11:05:34.325Z,25.08
2023-02-20T11:06:32.584Z,25.07
2023-02-20T11:07:32.546Z,24.80
2023-02-20T11:08:32.523Z,25.22
2023-02-20T11:09:32.520Z,25.18
2023-02-20T11:10:32.485Z,25.31
2023-02-20T11:11:32.464Z,25.22
2023-02-20T11:12:32.754Z,25.43
2023-02-20T11:13:32.443Z,25.11
2023-02-20T11:14:41.389Z,25.24
2023-02-20T11:15:33.474Z,25.56
2023-02-20T11:16:32.425Z,25.66
2023-02-20T11:17:32.400Z,25.63
2023-02-20T11:18:32.402Z,25.80
2023-02-20T11:19:32.378Z,25.90
2023-02-20T11:20:32.340Z,25.92
2023-02-20T11:21:32.311Z,26.03
2023-02-20T11:22:32.295Z,25.87
2023-02-20T11:23:32.280Z,25.95
2023-02-20T11:24:32.317Z,25.92
2023-02-20T11:25:32.238Z,26.04
2023-02-20T11:26:32.196Z,26.07
2023-02-20T11:27:32.166Z,25.98
2023-02-20T11:28:32.250Z,26.10
2023-02-20T11:29:32.136Z,26.25
2023-02-20T11:30:32.208Z,26.35
2023-02-20T11:31:32.186Z,26.51
2023-02-20T11:32:32.059Z,26.33
2023-02-20T11:33:32.027Z,26.70
2023-02-20T11:34:32.011Z,26.73
2023-02-20T11:35:31.984Z,26.81
2023-02-20T11:36:31.943Z,26.60
2023-02-20T11:37:32.594Z,26.44
2023-02-20T11:38:32.297Z,25.82
2023-02-20T11:39:32.036Z,25.70
2023-02-20T11:40:32.057Z,25.38
2023-02-20T11:41:31.975Z,25.21
2023-02-20T11:42:32.084Z,25.31
2023-02-20T11:43:31.907Z,25.13
2023-02-20T11:44:31.917Z,25.37
2023-02-20T11:45:31.886Z,25.28
2023-02-20T11:46:31.871Z,25.18
2023-02-20T11:47:31.809Z,25.07
2023-02-20T11:48:31.777Z,24.86
2023-02-20T11:49:31.748Z,24.65
2023-02-20T11:50:31.714Z,24.44
2023-02-20T11:51:31.681Z,24.81
2023-02-20T11:52:31.657Z,24.86
2023-02-20T11:53:31.611Z,25.19
2023-02-20T11:54:31.568Z,25.55
2023-02-20T11:55:31.530Z,25.80
2023-02-20T11:56:31.503Z,25.88
2023-02-20T11:57:31.478Z,26.33
2023-02-20T11:58:31.516Z,26.29
2023-02-20T11:59:31.392Z,26.68
2023-02-20T12:00:31.461Z,27.02
2023-02-20T12:01:31.396Z,26.82
2023-02-20T12:02:31.306Z,28.12
2023-02-20T12:03:31.276Z,27.86
2023-02-20T12:04:31.226Z,28.55
2023-02-20T12:05:31.349Z,28.04
2023-02-20T12:06:31.167Z,27.75
2023-02-20T12:07:31.125Z,29.32
2023-02-20T12:08:31.105Z,29.88
2023-02-20T12:09:31.096Z,29.50
2023-02-20T12:10:31.063Z,28.96
2023-02-20T12:11:31.065Z,29.58
2023-02-20T12:12:31.001Z,29.25
2023-02-20T12:13:30.982Z,29.62
2023-02-20T12:14:30.968Z,29.51
2023-02-20T12:15:30.977Z,29.52
2023-02-20T12:16:31.019Z,29.75
2023-02-20T12:17:30.914Z,29.85
2023-02-20T12:18:30.884Z,29.77
2023-02-20T12:19:30.868Z,29.84
2023-02-20T12:20:30.844Z,30.58
2023-02-20T12:21:30.843Z,29.93
2023-02-20T12:22:30.790Z,30.13
2023-02-20T12:23:30.753Z,30.25
2023-02-20T12:24:30.721Z,30.35
2023-02-20T12:25:30.686Z,30.24
2023-02-20T12:26:30.656Z,30.45
2023-02-20T12:27:30.669Z,30.13
2023-02-20T12:28:30.595Z,30.27
2023-02-20T12:29:30.543Z,30.36
2023-02-20T12:30:30.652Z,30.45
2023-02-20T12:31:30.550Z,30.02
2023-02-20T12:32:30.440Z,29.44
2023-02-20T12:33:30.389Z,28.83
2023-02-20T12:34:30.358Z,28.27
2023-02-20T12:35:30.322Z,26.62
2023-02-20T12:36:30.288Z,26.39
2023-02-20T12:37:30.249Z,26.21
2023-02-20T12:38:30.212Z,25.92
2023-02-20T12:39:30.189Z,25.65
2023-02-20T12:40:30.596Z,25.87
2023-02-20T12:41:30.118Z,25.77
2023-02-20T12:42:30.074Z,25.48
2023-02-20T12:43:30.030Z,25.59
2023-02-20T12:44:30.006Z,25.35
2023-02-20T12:45:29.987Z,25.22
2023-02-20T12:46:30.013Z,25.07
2023-02-20T12:47:29.952Z,24.97
2023-02-20T12:48:29.910Z,24.73
2023-02-20T12:49:29.902Z,24.66
2023-02-20T12:50:29.887Z,24.50
2023-02-20T12:51:29.849Z,24.39
2023-02-20T12:52:29.845Z,24.26
2023-02-20T12:53:29.862Z,24.08